Time;durP1;ratioP1;P1;durP2;ratioP2;P2;SDS_P1;SDS_P2;PMS_P1;PMS_P2;Temp;Humidity;BMP_temperature;BMP_pressure;BME280_temperature;BME280_humidity;BME280_pressure;Samples;Min_cycle;Max_cycle;Signal;HPM_P1;HPM_P2
2022/01/21 00:01:33;;;;;;;2.80;1.60;;;21.60;40.20;;;;;;5045205;28;43410;-63
2022/01/21 00:04:01;;;;;;;3.20;1.73;;;21.60;40.30;;;;;;5046534;28;43582;-63
2022/01/21 00:06:29;;;;;;;3.55;1.65;;;21.60;40.40;;;;;;5046178;28;44715;-63
2022/01/21 00:08:58;;;;;;;3.63;1.63;;;21.60;40.40;;;;;;5047828;28;43715;-63
2022/01/21 00:11:29;;;;;;;3.30;1.70;;;21.60;40.40;;;;;;5048941;28;43486;-63
2022/01/21 00:14:00;;;;;;;2.30;1.50;;;21.60;40.40;;;;;;5049070;28;44067;-63
2022/01/21 00:16:29;;;;;;;2.20;1.25;;;21.60;40.40;;;;;;5045661;28;44710;-63
2022/01/21 00:19:04;;;;;;;2.00;1.40;;;21.60;40.30;;;;;;5049468;28;43558;-64
2022/01/21 00:32:32;;;;;;;3.00;1.55;;;21.50;40.40;;;;;;5039722;28;43567;-63
2022/01/21 00:35:00;;;;;;;2.95;1.58;;;21.50;40.50;;;;;;5068076;27;43517;-63
2022/01/21 00:37:28;;;;;;;1.65;1.05;;;21.50;40.50;;;;;;5040831;28;44707;-63
2022/01/21 00:39:58;;;;;;;2.38;1.55;;;21.50;40.60;;;;;;5056949;28;43591;-63
2022/01/21 00:42:45;;;;;;;2.03;1.35;;;21.50;40.60;;;;;;5074516;27;43770;-64
2022/01/21 00:45:16;;;;;;;2.30;1.40;;;21.50;40.60;;;;;;5041564;28;43615;-63
2022/01/21 00:47:44;;;;;;;3.07;1.30;;;21.50;40.60;;;;;;5042338;28;43817;-63
2022/01/21 00:50:14;;;;;;;3.58;1.60;;;21.50;40.60;;;;;;5040782;28;43699;-63
2022/01/21 00:52:42;;;;;;;3.83;1.30;;;21.40;40.50;;;;;;5045902;28;43925;-63
2022/01/21 00:55:11;;;;;;;3.05;1.70;;;21.40;40.50;;;;;;5047305;28;43621;-63
2022/01/21 00:57:38;;;;;;;3.22;1.45;;;21.40;40.50;;;;;;5048318;28;44718;-63
2022/01/21 01:00:09;;;;;;;3.28;1.48;;;21.40;40.60;;;;;;5062367;28;43567;-63
2022/01/21 01:02:37;;;;;;;3.25;1.40;;;21.40;40.60;;;;;;5044511;28;43930;-63
2022/01/21 01:05:07;;;;;;;2.65;1.67;;;21.40;40.60;;;;;;5076837;27;43614;-63
2022/01/21 01:07:34;;;;;;;3.13;1.50;;;21.40;40.60;;;;;;5047668;28;44924;-63
2022/01/21 01:10:04;;;;;;;2.60;1.58;;;21.40;40.60;;;;;;5044958;28;44884;-63
2022/01/21 01:20:36;;;;;;;1.92;1.20;;;21.30;40.70;;;;;;5046626;28;44184;-63
2022/01/21 01:23:23;;;;;;;2.88;1.50;;;21.30;40.70;;;;;;5064876;28;44092;-63
2022/01/21 01:28:38;;;;;;;2.47;1.40;;;21.30;40.80;;;;;;5049761;28;43737;-64
2022/01/21 01:31:05;;;;;;;3.25;1.60;;;21.30;40.70;;;;;;5047814;28;43479;-63
2022/01/21 01:33:37;;;;;;;3.00;1.42;;;21.30;40.70;;;;;;5046103;28;43524;-64
2022/01/21 01:36:07;;;;;;;1.92;1.08;;;21.30;40.80;;;;;;5048015;28;43590;-63
2022/01/21 01:41:25;;;;;;;3.03;1.50;;;21.20;40.70;;;;;;5046896;28;43468;-63
2022/01/21 01:49:30;;;;;;;2.80;1.40;;;21.20;40.60;;;;;;5053096;28;44794;-63
2022/01/21 01:52:00;;;;;;;2.45;1.30;;;21.20;40.70;;;;;;5046243;28;43726;-64
2022/01/21 01:54:31;;;;;;;2.40;1.48;;;21.20;40.70;;;;;;5053479;28;43488;-63
2022/01/21 01:56:58;;;;;;;;;;;21.10;40.70;;;;;;5047790;28;43516;-63
2022/01/21 01:59:27;;;;;;;3.22;1.40;;;21.10;40.70;;;;;;5048799;28;44618;-64
2022/01/21 02:02:01;;;;;;;3.15;1.40;;;21.10;40.80;;;;;;5046516;28;43491;-63
2022/01/21 02:04:33;;;;;;;2.70;1.50;;;21.10;40.80;;;;;;5050257;28;43502;-63
2022/01/21 02:07:02;;;;;;;2.15;1.10;;;21.10;40.80;;;;;;5044062;28;43451;-63
2022/01/21 02:09:31;;;;;;;1.90;1.13;;;21.10;40.80;;;;;;5047779;28;44058;-64
2022/01/21 02:11:59;;;;;;;2.15;1.13;;;21.10;40.80;;;;;;5052435;28;43440;-64
2022/01/21 02:14:30;;;;;;;1.63;1.20;;;21.10;40.80;;;;;;5045618;28;43438;-63
2022/01/21 02:22:29;;;;;;;1.45;1.17;;;21.00;40.90;;;;;;5041690;28;43455;-63
2022/01/21 02:25:10;;;;;;;1.33;1.00;;;21.00;40.90;;;;;;5042693;28;43543;-63
2022/01/21 02:27:38;;;;;;;2.17;1.20;;;21.00;40.90;;;;;;5043194;28;43508;-64
2022/01/21 02:30:07;;;;;;;3.33;1.08;;;21.00;40.90;;;;;;5059255;28;44056;-63
2022/01/21 02:32:35;;;;;;;2.15;1.20;;;21.00;40.90;;;;;;5042746;28;43903;-63
2022/01/21 02:35:02;;;;;;;2.30;1.13;;;20.90;40.90;;;;;;5057728;28;43550;-63
2022/01/21 02:37:30;;;;;;;2.03;1.05;;;20.90;40.90;;;;;;5059237;28;43608;-63
2022/01/21 02:39:57;;;;;;;1.70;1.08;;;20.90;40.90;;;;;;5045576;28;43532;-63
2022/01/21 02:42:24;;;;;;;2.03;1.30;;;20.90;41.00;;;;;;5026837;28;43964;-64
2022/01/21 02:44:53;;;;;;;2.05;1.25;;;20.90;40.90;;;;;;5044464;28;43510;-63
2022/01/21 02:47:21;;;;;;;1.83;1.10;;;20.90;40.90;;;;;;5045255;28;43567;-64
2022/01/21 02:49:54;;;;;;;2.67;1.38;;;20.90;41.60;;;;;;5080795;27;44120;-64
2022/01/21 02:52:25;;;;;;;2.00;1.15;;;20.90;40.90;;;;;;5039845;28;43985;-64
2022/01/21 02:54:52;;;;;;;;;;;20.90;40.90;;;;;;5080200;27;43518;-64
2022/01/21 02:57:20;;;;;;;1.85;1.08;;;20.90;41.10;;;;;;5041901;28;43536;-64
2022/01/21 02:59:49;;;;;;;2.17;1.20;;;20.90;41.00;;;;;;5045582;28;43615;-63
2022/01/21 03:02:16;;;;;;;1.90;1.10;;;20.90;41.00;;;;;;5062052;28;43600;-63
2022/01/21 03:05:00;;;;;;;2.05;0.98;;;20.80;41.00;;;;;;5060058;28;43511;-63
2022/01/21 03:07:27;;;;;;;2.03;1.20;;;20.80;41.00;;;;;;5062428;28;43629;-64
2022/01/21 03:09:55;;;;;;;2.17;1.30;;;20.80;41.00;;;;;;5048119;28;43672;-64
2022/01/21 03:12:22;;;;;;;2.05;1.08;;;20.80;41.00;;;;;;5046858;28;43986;-63
2022/01/21 03:14:50;;;;;;;1.77;1.30;;;20.70;41.00;;;;;;5079316;27;43544;-64
2022/01/21 03:17:18;;;;;;;1.92;1.25;;;20.70;41.10;;;;;;5049327;28;44036;-63
2022/01/21 03:19:45;;;;;;;2.85;1.25;;;20.70;41.10;;;;;;5049746;28;44114;-64
2022/01/21 03:22:13;;;;;;;1.42;1.02;;;20.70;41.10;;;;;;5049183;28;43936;-64
2022/01/21 03:24:42;;;;;;;2.28;1.30;;;20.70;41.10;;;;;;5048522;28;43578;-64
2022/01/21 03:27:09;;;;;;;2.20;1.23;;;20.70;41.10;;;;;;5079016;27;43537;-63
2022/01/21 03:29:37;;;;;;;1.83;1.25;;;20.70;41.10;;;;;;5044873;28;44743;-63
2022/01/21 03:32:05;;;;;;;2.72;1.30;;;20.70;41.10;;;;;;5077675;27;43964;-64
2022/01/21 03:34:36;;;;;;;2.30;1.10;;;20.70;41.10;;;;;;5043062;28;43466;-63
2022/01/21 03:37:04;;;;;;;2.90;1.35;;;20.70;41.10;;;;;;5082074;27;43541;-64
2022/01/21 03:39:32;;;;;;;2.53;1.20;;;20.70;41.10;;;;;;5062182;28;44824;-63
2022/01/21 03:42:00;;;;;;;1.80;1.20;;;20.70;41.10;;;;;;5045847;28;44044;-64
2022/01/21 03:44:28;;;;;;;2.22;1.10;;;20.60;41.10;;;;;;5048461;28;44050;-64
2022/01/21 03:46:56;;;;;;;1.75;1.10;;;20.70;41.20;;;;;;5051256;28;43509;-63
2022/01/21 03:49:23;;;;;;;2.83;1.30;;;20.60;41.10;;;;;;5065567;28;44242;-64
2022/01/21 03:51:51;;;;;;;1.95;1.20;;;20.60;41.10;;;;;;5026957;28;44037;-63
2022/01/21 03:54:18;;;;;;;1.63;1.10;;;20.60;41.20;;;;;;5061592;28;43581;-63
2022/01/21 03:56:46;;;;;;;1.25;0.93;;;20.60;41.20;;;;;;5030978;28;43630;-64
2022/01/21 03:59:13;;;;;;;1.55;1.13;;;20.60;41.20;;;;;;5064746;28;44690;-63
2022/01/21 04:01:40;;;;;;;2.05;1.08;;;20.60;41.20;;;;;;5042380;28;43480;-63
2022/01/21 04:04:08;;;;;;;2.17;1.20;;;20.60;41.20;;;;;;5057246;28;44091;-64
2022/01/21 04:06:38;;;;;;;1.98;1.20;;;20.60;41.20;;;;;;5080523;27;43587;-63
2022/01/21 04:09:05;;;;;;;2.30;1.10;;;20.60;41.20;;;;;;5055817;28;43864;-64
2022/01/21 04:11:33;;;;;;;1.20;0.90;;;20.50;41.20;;;;;;5036634;28;43529;-64
2022/01/21 04:14:01;;;;;;;1.23;1.13;;;20.60;41.30;;;;;;5041705;28;43522;-63
2022/01/21 04:16:28;;;;;;;1.60;1.00;;;20.50;41.20;;;;;;5040225;28;43476;-63
2022/01/21 04:18:56;;;;;;;1.63;1.13;;;20.50;41.20;;;;;;5040258;28;43790;-63
2022/01/21 04:21:24;;;;;;;1.40;1.05;;;20.50;41.30;;;;;;5041300;28;43573;-64
2022/01/21 04:23:53;;;;;;;1.73;1.13;;;20.50;41.30;;;;;;5058727;28;43545;-64
2022/01/21 04:26:30;;;;;;;1.00;0.90;;;20.50;41.30;;;;;;5042357;28;43500;-63
2022/01/21 04:29:05;;;;;;;2.15;1.20;;;20.50;41.30;;;;;;5061555;28;44910;-63
2022/01/21 04:31:47;;;;;;;2.17;1.20;;;20.50;41.30;;;;;;5060583;28;44106;-64
2022/01/21 04:34:16;;;;;;;2.65;1.45;;;20.40;41.30;;;;;;5062523;28;43494;-63
2022/01/21 04:36:44;;;;;;;1.23;1.00;;;20.40;41.30;;;;;;5064464;28;43559;-63
2022/01/21 04:39:20;;;;;;;2.65;1.33;;;20.40;41.30;;;;;;5064224;28;43813;-63
2022/01/21 04:50:08;;;;;;;2.13;1.00;;;20.40;41.30;;;;;;5051168;28;44661;-64
2022/01/21 04:52:37;;;;;;;3.03;1.17;;;20.30;41.30;;;;;;5046324;28;43489;-63
2022/01/21 04:55:15;;;;;;;2.58;1.08;;;20.30;41.30;;;;;;5059379;28;43587;-63
2022/01/21 04:57:43;;;;;;;1.38;1.00;;;20.30;41.30;;;;;;5063400;28;43495;-64
2022/01/21 05:00:11;;;;;;;1.92;1.17;;;20.30;41.30;;;;;;5063560;28;44236;-64
2022/01/21 05:02:40;;;;;;;2.05;1.00;;;20.30;41.30;;;;;;5064725;28;44071;-64
2022/01/21 05:05:11;;;;;;;1.65;1.10;;;20.30;41.30;;;;;;5082585;27;43565;-64
2022/01/21 05:07:40;;;;;;;1.90;1.20;;;20.30;41.60;;;;;;5084711;27;43447;-64
2022/01/21 05:10:09;;;;;;;2.75;1.30;;;20.30;41.30;;;;;;5066250;28;44202;-63
2022/01/21 05:12:37;;;;;;;1.65;1.05;;;20.30;41.30;;;;;;5064971;28;43772;-64
2022/01/21 05:16:00;;;;;;;2.33;1.08;;;20.30;41.30;;;;;;5079384;27;43478;-64
2022/01/21 05:17:56;;;;;;;2.92;1.40;;;20.20;41.30;;;;;;5029049;28;43699;-63
2022/01/21 05:20:39;;;;;;;1.77;1.02;;;20.20;41.30;;;;;;5049048;28;44914;-63
2022/01/21 05:23:26;;;;;;;4.10;1.17;;;20.20;41.30;;;;;;5048299;28;44096;-63
2022/01/21 05:25:56;;;;;;;1.80;1.10;;;20.20;41.30;;;;;;5048815;28;43537;-64
2022/01/21 05:28:23;;;;;;;2.15;1.10;;;20.20;41.40;;;;;;5049449;28;43545;-63
2022/01/21 05:31:11;;;;;;;2.15;1.10;;;20.20;41.40;;;;;;5015572;28;43861;-63
2022/01/21 05:33:48;;;;;;;2.13;1.20;;;20.20;41.40;;;;;;5080672;27;44117;-63
2022/01/21 05:36:27;;;;;;;1.95;1.40;;;20.10;41.30;;;;;;5068534;28;43466;-63
2022/01/21 05:39:20;;;;;;;1.98;1.20;;;20.10;41.30;;;;;;5085287;27;43462;-64
2022/01/21 05:42:19;;;;;;;2.05;1.10;;;20.20;41.50;;;;;;4996712;28;44193;-63
2022/01/21 05:48:36;;;;;;;1.75;0.98;;;20.10;41.50;;;;;;5042279;28;44086;-64
2022/01/21 05:51:24;;;;;;;2.20;1.20;;;20.10;41.50;;;;;;5011920;28;43636;-64
2022/01/21 05:54:15;;;;;;;2.03;1.37;;;20.10;41.50;;;;;;5021888;28;43846;-64
2022/01/21 05:57:14;;;;;;;1.88;1.10;;;20.00;41.50;;;;;;5004983;28;43970;-64
2022/01/21 05:59:45;;;;;;;2.35;1.23;;;20.10;41.50;;;;;;5040929;28;43448;-63
2022/01/21 06:02:13;;;;;;;2.20;1.20;;;20.00;41.50;;;;;;5043637;28;43546;-63
2022/01/21 06:04:44;;;;;;;2.28;1.23;;;20.00;42.20;;;;;;5044019;28;43678;-63
2022/01/21 06:07:12;;;;;;;2.20;0.88;;;20.00;41.50;;;;;;5043182;28;43980;-64
2022/01/21 06:09:43;;;;;;;2.28;1.02;;;20.00;41.50;;;;;;5060665;28;43549;-64
2022/01/21 06:12:11;;;;;;;2.20;1.10;;;20.00;41.50;;;;;;5075142;27;43637;-63
2022/01/21 06:14:38;;;;;;;1.83;1.20;;;20.00;41.50;;;;;;5043543;28;43793;-64
2022/01/21 06:17:12;;;;;;;3.70;1.42;;;19.90;41.50;;;;;;5060920;28;43967;-64
2022/01/21 06:19:41;;;;;;;2.88;1.30;;;20.00;41.50;;;;;;5046023;28;43505;-64
2022/01/21 06:22:08;;;;;;;2.33;1.20;;;20.00;41.60;;;;;;5046086;28;43544;-64
2022/01/21 06:24:36;;;;;;;1.30;1.20;;;20.00;41.50;;;;;;5045791;28;45279;-63
2022/01/21 06:27:04;;;;;;;1.10;0.77;;;20.00;41.60;;;;;;5046833;28;43981;-64
2022/01/21 06:29:32;;;;;;;2.13;1.42;;;19.90;41.50;;;;;;5047535;28;43559;-64
2022/01/21 06:31:59;;;;;;;2.15;1.20;;;19.90;41.50;;;;;;5047477;28;43582;-63
2022/01/21 06:34:27;;;;;;;2.65;1.13;;;19.90;41.50;;;;;;5047747;28;43759;-63
2022/01/21 06:36:54;;;;;;;1.77;1.20;;;20.00;41.50;;;;;;5048180;28;43443;-63
2022/01/21 06:39:21;;;;;;;3.15;1.40;;;19.90;41.40;;;;;;5048937;28;43537;-64
2022/01/21 06:41:50;;;;;;;2.95;1.25;;;19.90;41.50;;;;;;5049077;28;43949;-63
2022/01/21 06:44:19;;;;;;;1.60;1.30;;;19.90;41.60;;;;;;5046136;28;43935;-64
2022/01/21 06:46:47;;;;;;;2.60;1.30;;;19.90;41.60;;;;;;5049641;28;43454;-64
2022/01/21 06:49:15;;;;;;;2.08;1.35;;;19.90;41.60;;;;;;5047486;28;43589;-63
2022/01/21 06:51:42;;;;;;;4.07;1.75;;;19.90;41.70;;;;;;5045791;28;43493;-64
2022/01/21 06:54:10;;;;;;;2.88;1.08;;;19.90;41.70;;;;;;5048331;28;43953;-64
2022/01/21 06:56:38;;;;;;;2.85;1.30;;;19.90;41.70;;;;;;5041478;28;43490;-65
2022/01/21 06:59:05;;;;;;;2.17;1.30;;;19.90;41.70;;;;;;5047722;28;43682;-64
2022/01/21 07:01:33;;;;;;;2.33;1.20;;;20.00;41.80;;;;;;5051454;28;43546;-64
2022/01/21 07:04:01;;;;;;;2.85;1.30;;;20.00;41.70;;;;;;5048855;28;45077;-65
2022/01/21 07:06:29;;;;;;;2.03;1.23;;;20.00;41.70;;;;;;5048084;28;43473;-65
2022/01/21 07:08:56;;;;;;;2.85;1.40;;;20.00;41.70;;;;;;5050404;28;43484;-64
2022/01/21 07:11:34;;;;;;;3.15;1.50;;;20.00;41.70;;;;;;5116072;27;43618;-64
2022/01/21 07:14:01;;;;;;;2.15;1.30;;;20.00;41.70;;;;;;5098689;27;43475;-64
2022/01/21 07:16:29;;;;;;;2.65;1.20;;;20.00;41.70;;;;;;5076256;27;43897;-65
2022/01/21 07:18:56;;;;;;;2.95;1.60;;;20.00;41.70;;;;;;5098378;27;43478;-64
2022/01/21 07:21:24;;;;;;;2.75;1.27;;;20.10;41.80;;;;;;5096684;27;44707;-65
2022/01/21 07:23:51;;;;;;;2.03;1.00;;;20.00;41.70;;;;;;5097897;27;43525;-64
2022/01/21 07:26:19;;;;;;;2.53;1.50;;;20.10;41.80;;;;;;5096539;27;43586;-65
2022/01/21 07:28:46;;;;;;;1.55;1.40;;;20.10;41.70;;;;;;5095621;27;43498;-65
2022/01/21 07:31:14;;;;;;;1.92;1.25;;;20.10;41.60;;;;;;5059179;27;43950;-65
2022/01/21 07:33:41;;;;;;;2.00;1.33;;;20.20;41.60;;;;;;5094717;27;43501;-65
2022/01/21 07:36:09;;;;;;;2.15;1.45;;;20.10;41.50;;;;;;5081329;27;43884;-65
2022/01/21 07:38:38;;;;;;;1.95;1.13;;;20.20;41.60;;;;;;5096380;27;43554;-64
2022/01/21 07:41:06;;;;;;;2.85;1.65;;;20.20;41.50;;;;;;5095416;27;44045;-64
2022/01/21 07:43:39;;;;;;;2.17;1.40;;;20.20;41.50;;;;;;5092724;27;43543;-65
2022/01/21 07:46:06;;;;;;;2.72;1.52;;;20.20;41.50;;;;;;5096302;27;43527;-64
2022/01/21 07:48:34;;;;;;;2.63;1.35;;;20.20;41.60;;;;;;5076097;27;43559;-64
2022/01/21 07:51:01;;;;;;;1.73;1.05;;;20.20;41.50;;;;;;5093997;27;43935;-64
2022/01/21 07:53:29;;;;;;;3.83;1.50;;;20.20;41.50;;;;;;5094635;27;43479;-64
2022/01/21 07:55:56;;;;;;;3.00;1.42;;;20.20;41.50;;;;;;5093761;27;43598;-64
2022/01/21 07:58:24;;;;;;;2.50;1.45;;;20.30;41.50;;;;;;5090376;27;44156;-65
2022/01/21 08:00:51;;;;;;;2.42;1.45;;;20.30;41.50;;;;;;5098235;27;43808;-64
2022/01/21 08:03:20;;;;;;;1.30;1.17;;;20.30;41.50;;;;;;5081310;27;44041;-64
2022/01/21 08:05:47;;;;;;;3.38;1.58;;;20.30;41.40;;;;;;5098259;27;43400;-64
2022/01/21 08:08:15;;;;;;;3.53;1.40;;;20.30;41.60;;;;;;5098560;27;43509;-65
2022/01/21 08:10:42;;;;;;;2.40;1.30;;;20.30;41.60;;;;;;5097249;27;44812;-64
2022/01/21 08:13:10;;;;;;;4.60;1.50;;;20.30;41.70;;;;;;5098268;27;43484;-65
2022/01/21 08:15:37;;;;;;;3.88;1.60;;;20.30;41.70;;;;;;5097466;27;43597;-65
2022/01/21 08:18:05;;;;;;;2.97;1.70;;;20.30;41.70;;;;;;5079823;27;43505;-65
2022/01/21 08:20:33;;;;;;;3.08;1.40;;;20.30;41.70;;;;;;5098660;27;44741;-64
2022/01/21 08:23:00;;;;;;;6.57;1.83;;;20.30;41.80;;;;;;5083985;28;43376;-64
2022/01/21 08:25:28;;;;;;;2.47;1.40;;;20.30;41.80;;;;;;5084085;28;43480;-65
2022/01/21 08:27:55;;;;;;;3.47;1.58;;;20.40;41.90;;;;;;5084337;28;43479;-64
2022/01/21 08:30:23;;;;;;;3.25;1.23;;;20.40;41.90;;;;;;5083526;28;43813;-64
2022/01/21 08:32:51;;;;;;;3.17;1.73;;;20.40;41.80;;;;;;5064229;28;43456;-65
2022/01/21 08:35:19;;;;;;;3.90;1.90;;;20.40;41.80;;;;;;5084409;28;44069;-64
2022/01/21 08:37:46;;;;;;;4.28;1.58;;;20.40;41.80;;;;;;5083510;28;43469;-65
2022/01/21 08:40:14;;;;;;;3.25;1.67;;;20.40;41.80;;;;;;5083159;28;43797;-64
2022/01/21 08:42:41;;;;;;;3.25;1.83;;;20.50;41.90;;;;;;5079848;28;43508;-63
2022/01/21 08:45:11;;;;;;;3.00;1.50;;;20.50;41.80;;;;;;5083098;28;43542;-64
2022/01/21 08:47:40;;;;;;;3.20;1.70;;;20.40;41.80;;;;;;5083544;28;43521;-64
2022/01/21 08:50:11;;;;;;;3.95;2.25;;;20.50;41.90;;;;;;5082683;28;44670;-64
2022/01/21 08:52:41;;;;;;;5.53;2.33;;;20.50;41.90;;;;;;5077620;28;43498;-64
2022/01/21 08:55:15;;;;;;;10.10;5.25;;;20.50;42.10;;;;;;5080511;28;43435;-64
2022/01/21 08:57:43;;;;;;;29.30;16.38;;;20.60;42.00;;;;;;5077362;28;43589;-64
2022/01/21 09:00:19;;;;;;;25.02;13.75;;;20.60;41.90;;;;;;5081136;28;43854;-63
2022/01/21 09:02:47;;;;;;;20.73;11.63;;;20.70;41.90;;;;;;5082116;28;43677;-63
2022/01/21 09:05:15;;;;;;;16.25;10.65;;;20.80;41.90;;;;;;5084206;28;43471;-60
2022/01/21 09:07:42;;;;;;;18.27;9.55;;;20.90;41.70;;;;;;5083465;28;43411;-62
2022/01/21 09:10:11;;;;;;;14.55;9.23;;;21.10;41.70;;;;;;5083043;28;45235;-64
2022/01/21 09:12:39;;;;;;;15.05;8.70;;;21.20;41.50;;;;;;5080665;28;43530;-62
2022/01/21 09:15:07;;;;;;;14.30;7.18;;;21.30;41.50;;;;;;5084128;28;43536;-63
2022/01/21 09:17:36;;;;;;;15.82;7.53;;;21.40;41.50;;;;;;5082923;28;43498;-62
2022/01/21 09:20:04;;;;;;;12.90;7.40;;;21.50;41.30;;;;;;5084084;28;43754;-62
2022/01/21 09:22:32;;;;;;;11.25;6.47;;;21.60;41.20;;;;;;5083373;28;43505;-64
2022/01/21 09:24:59;;;;;;;12.15;5.93;;;21.70;41.10;;;;;;5083318;28;43553;-63
2022/01/21 09:27:27;;;;;;;11.50;6.50;;;21.80;41.00;;;;;;5083382;28;43539;-63
2022/01/21 09:29:54;;;;;;;9.80;5.70;;;21.90;40.90;;;;;;5082661;28;44991;-63
2022/01/21 09:32:22;;;;;;;9.60;5.20;;;22.00;40.80;;;;;;5083078;27;43500;-63
2022/01/21 09:34:49;;;;;;;8.88;5.13;;;22.10;40.70;;;;;;5082968;28;43783;-63
2022/01/21 09:37:17;;;;;;;8.48;4.53;;;22.10;40.60;;;;;;5077412;28;43518;-61
2022/01/21 09:39:45;;;;;;;10.27;5.25;;;22.20;40.40;;;;;;5084273;27;43777;-63
2022/01/21 09:42:14;;;;;;;7.97;5.00;;;22.20;40.40;;;;;;5079858;28;43861;-63
2022/01/21 09:44:44;;;;;;;8.93;4.65;;;22.30;40.50;;;;;;5081823;28;43405;-63
2022/01/21 09:47:15;;;;;;;7.97;4.35;;;22.40;40.50;;;;;;5082771;28;43975;-63
2022/01/21 09:49:43;;;;;;;;;;;22.40;40.50;;;;;;5080057;28;45013;-62
2022/01/21 09:52:14;;;;;;;8.88;4.35;;;22.50;40.60;;;;;;5080410;28;43459;-63
2022/01/21 09:54:45;;;;;;;8.15;4.20;;;22.50;40.50;;;;;;5081416;28;43441;-63
2022/01/21 09:57:23;;;;;;;7.20;4.07;;;22.50;40.50;;;;;;5079351;28;43560;-62
2022/01/21 09:59:52;;;;;;;7.15;3.80;;;22.60;40.50;;;;;;5076397;28;44052;-62
2022/01/21 10:02:25;;;;;;;7.75;4.00;;;22.60;40.40;;;;;;5067955;28;43708;-62
2022/01/21 10:04:56;;;;;;;8.70;3.60;;;22.70;40.40;;;;;;5081248;28;43482;-62
2022/01/21 10:07:23;;;;;;;5.32;3.40;;;22.70;40.30;;;;;;5080604;28;44126;-64
2022/01/21 10:09:54;;;;;;;4.75;3.33;;;22.70;40.50;;;;;;5082478;28;44707;-62
2022/01/21 10:12:22;;;;;;;5.18;3.33;;;22.70;40.30;;;;;;5077811;27;43481;-63
2022/01/21 10:14:50;;;;;;;7.28;2.95;;;22.70;40.30;;;;;;5082515;28;43442;-62
2022/01/21 10:17:39;;;;;;;5.50;2.90;;;22.80;40.40;;;;;;5081284;28;43499;-62
2022/01/21 10:20:22;;;;;;;5.65;2.95;;;22.70;40.30;;;;;;5063391;28;44792;-62
2022/01/21 10:23:07;;;;;;;3.90;2.35;;;22.80;40.50;;;;;;5081877;28;43470;-62
2022/01/21 10:25:40;;;;;;;5.75;2.85;;;22.80;40.40;;;;;;5081345;28;43546;-62
2022/01/21 10:28:19;;;;;;;5.47;2.63;;;22.80;40.50;;;;;;5081258;28;43520;-63
2022/01/21 10:30:48;;;;;;;5.68;2.53;;;22.80;40.50;;;;;;5081004;28;44698;-63
2022/01/21 10:33:19;;;;;;;5.68;2.55;;;22.80;40.60;;;;;;5081420;28;43584;-62
2022/01/21 10:35:49;;;;;;;4.57;2.60;;;22.80;40.50;;;;;;5082344;28;43449;-62
2022/01/21 10:38:29;;;;;;;3.55;2.42;;;22.80;40.60;;;;;;5081039;28;43476;-62
2022/01/21 10:41:08;;;;;;;3.95;2.53;;;22.80;40.60;;;;;;5065303;28;43942;-63
2022/01/21 10:43:35;;;;;;;5.03;2.63;;;22.80;40.60;;;;;;5082083;28;44028;-62
2022/01/21 10:46:05;;;;;;;5.97;2.67;;;22.80;40.70;;;;;;5081821;28;43490;-62
2022/01/21 10:48:57;;;;;;;3.88;2.25;;;22.80;40.70;;;;;;5082020;28;43576;-62
2022/01/21 10:51:28;;;;;;;4.25;2.47;;;22.80;40.70;;;;;;5081459;28;44985;-62
2022/01/21 10:53:58;;;;;;;4.90;2.65;;;22.80;40.70;;;;;;5082182;28;43490;-63
2022/01/21 10:56:27;;;;;;;3.65;2.25;;;22.80;40.70;;;;;;5082060;28;44153;-62
2022/01/21 10:58:56;;;;;;;4.05;2.22;;;22.80;40.70;;;;;;5081056;28;43442;-63
2022/01/21 11:01:29;;;;;;;4.75;2.28;;;22.80;40.70;;;;;;5077691;28;43802;-63
2022/01/21 11:04:03;;;;;;;3.25;2.28;;;22.80;40.60;;;;;;5081915;28;43546;-62
2022/01/21 11:06:47;;;;;;;4.35;2.20;;;22.80;40.70;;;;;;5081903;28;43470;-62
2022/01/21 11:09:23;;;;;;;3.58;1.88;;;22.80;40.70;;;;;;5080184;28;44022;-63
2022/01/21 11:12:14;;;;;;;3.10;1.95;;;22.80;40.70;;;;;;5076599;28;43791;-62
2022/01/21 11:14:58;;;;;;;6.00;2.53;;;22.80;40.70;;;;;;5080434;27;43532;-62
2022/01/21 11:17:26;;;;;;;4.00;2.15;;;22.80;40.70;;;;;;5080668;28;43474;-63
2022/01/21 11:20:16;;;;;;;3.67;2.03;;;22.80;40.70;;;;;;5082155;28;43713;-62
2022/01/21 11:22:59;;;;;;;5.30;2.40;;;22.80;40.70;;;;;;5081236;28;43815;-62
2022/01/21 11:25:45;;;;;;;4.03;2.17;;;22.80;40.70;;;;;;5080952;28;43570;-63
2022/01/21 11:28:17;;;;;;;3.63;1.95;;;22.90;40.80;;;;;;5079733;28;43543;-63
2022/01/21 11:30:46;;;;;;;4.43;2.15;;;22.80;41.40;;;;;;5062144;28;43531;-63
2022/01/21 11:33:13;;;;;;;3.30;1.88;;;22.80;40.70;;;;;;5065428;28;44332;-62
2022/01/21 11:35:41;;;;;;;6.57;2.63;;;22.90;40.80;;;;;;5081517;27;43704;-63
2022/01/21 11:38:12;;;;;;;4.30;1.80;;;22.90;40.80;;;;;;5080549;28;43968;-62
2022/01/21 11:40:40;;;;;;;5.45;1.90;;;22.90;40.80;;;;;;5080558;28;43513;-63
2022/01/21 11:43:09;;;;;;;3.45;2.05;;;22.90;40.80;;;;;;5080044;28;44741;-63
2022/01/21 11:51:26;;;;;;;3.78;1.83;;;22.90;40.80;;;;;;5078074;28;43415;-62
2022/01/21 11:53:57;;;;;;;3.90;1.80;;;22.90;40.80;;;;;;5077965;28;43995;-62
2022/01/21 11:56:43;;;;;;;3.88;1.90;;;22.90;40.90;;;;;;5081020;28;43561;-62
2022/01/21 11:59:34;;;;;;;4.57;1.85;;;22.90;40.80;;;;;;5084693;28;43446;-65
2022/01/21 12:02:21;;;;;;;2.97;2.00;;;22.90;40.80;;;;;;5076448;28;44112;-63
2022/01/21 12:05:00;;;;;;;4.05;2.00;;;22.90;40.80;;;;;;5084946;28;44054;-63
2022/01/21 12:07:44;;;;;;;3.42;1.83;;;22.90;40.80;;;;;;5082113;28;43617;-63
2022/01/21 12:10:14;;;;;;;3.92;1.85;;;22.90;40.80;;;;;;5084108;28;43534;-63
2022/01/21 12:12:49;;;;;;;3.95;2.05;;;22.90;40.80;;;;;;5084220;27;43589;-63
2022/01/21 12:16:08;;;;;;;3.03;1.60;;;22.90;40.80;;;;;;5084222;28;44805;-62
2022/01/21 12:21:37;;;;;;;4.15;1.58;;;22.90;40.90;;;;;;5083168;28;43573;-61
2022/01/21 12:24:07;;;;;;;3.85;1.70;;;22.90;40.90;;;;;;5083535;28;43508;-63
2022/01/21 12:26:36;;;;;;;4.47;2.87;;;22.90;40.90;;;;;;5084534;28;43805;-63
2022/01/21 12:29:03;;;;;;;3.97;1.75;;;22.90;41.00;;;;;;5081667;28;43642;-63
2022/01/21 12:31:47;;;;;;;3.53;2.17;;;22.90;41.00;;;;;;5083966;28;43486;-62
2022/01/21 12:34:20;;;;;;;3.38;1.58;;;23.00;41.10;;;;;;5083297;28;44158;-63
2022/01/21 12:36:55;;;;;;;4.30;2.00;;;23.00;41.20;;;;;;5083864;28;43773;-63
2022/01/21 12:39:46;;;;;;;3.85;1.90;;;23.00;41.20;;;;;;5083591;27;43688;-63
2022/01/21 12:42:28;;;;;;;2.90;1.53;;;23.00;41.10;;;;;;5077760;28;43705;-63
2022/01/21 12:45:18;;;;;;;3.00;1.80;;;23.00;41.10;;;;;;5083385;28;43475;-63
2022/01/21 12:47:48;;;;;;;3.17;1.80;;;23.00;41.10;;;;;;5081994;28;43749;-63
2022/01/21 12:50:49;;;;;;;2.85;1.40;;;23.00;41.20;;;;;;5067247;28;44329;-63
2022/01/21 12:53:24;;;;;;;4.10;1.90;;;23.00;41.10;;;;;;5080389;28;43449;-63
2022/01/21 12:55:57;;;;;;;3.33;1.90;;;23.00;41.10;;;;;;5080077;28;43478;-64
2022/01/21 12:58:41;;;;;;;3.17;1.80;;;23.00;41.10;;;;;;5081282;28;44165;-63
2022/01/21 13:01:11;;;;;;;4.22;1.90;;;23.00;41.10;;;;;;5077837;28;43797;-64
2022/01/21 13:03:43;;;;;;;3.90;1.60;;;23.00;41.10;;;;;;5075251;28;44916;-64
2022/01/21 13:06:19;;;;;;;3.45;1.67;;;23.00;41.00;;;;;;5083448;28;43462;-63
2022/01/21 13:09:08;;;;;;;2.47;1.48;;;23.00;41.00;;;;;;5083239;27;45792;-63
2022/01/21 13:11:42;;;;;;;3.00;1.60;;;23.00;41.00;;;;;;5080119;28;43479;-63
2022/01/21 13:17:02;;;;;;;4.00;1.95;;;23.00;41.00;;;;;;5082640;28;43450;-63
2022/01/21 13:19:41;;;;;;;3.80;1.63;;;23.00;41.10;;;;;;5082698;27;43802;-64
2022/01/21 13:22:25;;;;;;;3.50;1.77;;;23.00;41.00;;;;;;5078127;28;43727;-63
2022/01/21 13:25:03;;;;;;;4.25;2.08;;;23.00;41.00;;;;;;5080094;28;43533;-62
2022/01/21 13:27:33;;;;;;;3.60;1.83;;;23.00;41.00;;;;;;5078278;28;43531;-63
2022/01/21 13:30:07;;;;;;;3.15;1.70;;;23.00;41.10;;;;;;5081439;28;43806;-64
2022/01/21 13:32:35;;;;;;;3.35;1.50;;;23.00;41.00;;;;;;5082601;28;43972;-64
2022/01/21 13:35:10;;;;;;;2.73;1.43;;;23.00;41.00;;;;;;5083691;28;43590;-64
2022/01/21 13:37:40;;;;;;;3.95;1.80;;;23.00;40.90;;;;;;5079648;28;43450;-63
2022/01/21 13:40:09;;;;;;;3.40;1.57;;;23.00;40.90;;;;;;5083459;28;45074;-64
2022/01/21 13:42:38;;;;;;;2.97;1.60;;;23.00;40.90;;;;;;5082829;28;43522;-63
2022/01/21 13:45:11;;;;;;;3.42;1.70;;;23.00;40.90;;;;;;5083580;28;43538;-63
2022/01/21 13:47:42;;;;;;;4.28;2.05;;;23.00;41.00;;;;;;5082559;28;43591;-63
2022/01/21 13:50:13;;;;;;;3.80;1.80;;;23.00;41.00;;;;;;5083478;28;43930;-63
2022/01/21 13:52:45;;;;;;;4.25;1.77;;;23.00;41.00;;;;;;5081991;28;44029;-63
2022/01/21 13:55:28;;;;;;;3.33;1.73;;;23.00;41.00;;;;;;5082816;27;43510;-63
2022/01/21 13:58:03;;;;;;;3.63;1.60;;;23.00;40.80;;;;;;5082446;28;43484;-63
2022/01/21 14:00:43;;;;;;;4.40;2.17;;;23.00;40.90;;;;;;5081465;28;44705;-63
2022/01/21 14:03:24;;;;;;;4.10;1.73;;;23.00;40.90;;;;;;5075361;27;43707;-63
2022/01/21 14:06:02;;;;;;;3.88;2.10;;;23.00;41.00;;;;;;5081789;28;43472;-63
2022/01/21 14:08:40;;;;;;;3.60;1.88;;;23.00;41.00;;;;;;5078256;28;43453;-64
2022/01/21 14:11:12;;;;;;;3.33;1.60;;;23.00;41.00;;;;;;5080770;28;44708;-64